Time;durP1;ratioP1;P1;durP2;ratioP2;P2;SDS_P1;SDS_P2;PMS_P1;PMS_P2;Temp;Humidity;BMP_temperature;BMP_pressure;BME280_temperature;BME280_humidity;BME280_pressure;Samples;Min_cycle;Max_cycle;Signal;HPM_P1;HPM_P2
2024/01/17 00:00:02;;;;;;;0.10;0.10;;;;;;;;;;5043604;28;20048;-82
2024/01/17 00:02:31;;;;;;;0.10;0.10;;;;;;;;;;5058297;28;20029;-81
2024/01/17 00:04:57;;;;;;;0.20;0.20;;;;;;;;;;5070639;28;20057;-81
2024/01/17 00:07:24;;;;;;;0.10;0.10;;;;;;;;;;5069048;28;20057;-81
2024/01/17 00:09:51;;;;;;;0.00;0.00;;;;;;;;;;5048548;28;20041;-81
2024/01/17 00:12:17;;;;;;;0.10;0.10;;;;;;;;;;5047761;28;20423;-82
2024/01/17 00:14:44;;;;;;;0.10;0.10;;;;;;;;;;5045909;28;20048;-81
2024/01/17 00:17:12;;;;;;;0.10;0.10;;;;;;;;;;5044951;28;20060;-81
2024/01/17 00:19:38;;;;;;;0.35;0.35;;;;;;;;;;5051579;28;20505;-81
2024/01/17 00:22:05;;;;;;;0.10;0.10;;;;;;;;;;5045517;28;20049;-81
2024/01/17 00:24:31;;;;;;;0.10;0.10;;;;;;;;;;5043928;28;20065;-80
2024/01/17 00:26:57;;;;;;;0.80;0.80;;;;;;;;;;5042224;28;20528;-81
2024/01/17 00:29:24;;;;;;;0.10;0.10;;;;;;;;;;5056847;28;20053;-81
2024/01/17 00:31:51;;;;;;;0.10;0.10;;;;;;;;;;5051785;28;20104;-81
2024/01/17 00:34:17;;;;;;;0.10;0.10;;;;;;;;;;5046397;28;20103;-81
2024/01/17 00:36:44;;;;;;;0.00;0.00;;;;;;;;;;5054660;28;20070;-81
2024/01/17 00:39:12;;;;;;;2.75;2.53;;;;;;;;;;5042536;28;20131;-81
2024/01/17 00:41:39;;;;;;;0.10;0.10;;;;;;;;;;5046329;28;20139;-81
2024/01/17 00:44:05;;;;;;;0.10;0.10;;;;;;;;;;5105008;23;20957;-77
2024/01/17 00:46:32;;;;;;;0.10;0.10;;;;;;;;;;5048043;28;20505;-77
2024/01/17 00:48:58;;;;;;;0.10;0.10;;;;;;;;;;5030726;28;20057;-77
2024/01/17 00:51:25;;;;;;;0.10;0.10;;;;;;;;;;5049400;28;20058;-77
2024/01/17 00:53:52;;;;;;;0.10;0.10;;;;;;;;;;5038515;28;20054;-77
2024/01/17 00:56:19;;;;;;;0.22;0.22;;;;;;;;;;5026556;28;20053;-77
2024/01/17 00:58:45;;;;;;;0.10;0.10;;;;;;;;;;5043407;28;20540;-77
2024/01/17 01:01:12;;;;;;;0.10;0.10;;;;;;;;;;5045644;28;20116;-77
2024/01/17 01:03:38;;;;;;;0.10;0.10;;;;;;;;;;5045615;28;20598;-76
2024/01/17 01:06:05;;;;;;;0.10;0.10;;;;;;;;;;5040503;28;20060;-77
2024/01/17 01:08:31;;;;;;;0.10;0.10;;;;;;;;;;5041617;28;20585;-77
2024/01/17 01:10:58;;;;;;;0.47;0.47;;;;;;;;;;5027961;28;20062;-77
2024/01/17 01:13:24;;;;;;;0.10;0.10;;;;;;;;;;5048584;28;20054;-77
2024/01/17 01:15:51;;;;;;;0.00;0.00;;;;;;;;;;5021967;28;20058;-77
2024/01/17 01:18:17;;;;;;;0.00;0.00;;;;;;;;;;5036756;28;20061;-77
2024/01/17 01:20:44;;;;;;;0.00;0.00;;;;;;;;;;5043049;28;20049;-77
2024/01/17 01:23:10;;;;;;;0.10;0.10;;;;;;;;;;5044738;28;20053;-78
2024/01/17 01:25:37;;;;;;;0.10;0.10;;;;;;;;;;5028217;28;20145;-78
2024/01/17 01:28:04;;;;;;;0.30;0.30;;;;;;;;;;5033989;28;20050;-78
2024/01/17 01:30:31;;;;;;;0.10;0.10;;;;;;;;;;5044849;28;20064;-78
2024/01/17 01:32:57;;;;;;;0.10;0.10;;;;;;;;;;5039140;28;20056;-78
2024/01/17 01:35:24;;;;;;;0.00;0.00;;;;;;;;;;5026492;28;20504;-78
2024/01/17 01:37:51;;;;;;;0.00;0.00;;;;;;;;;;5045924;28;20049;-78
2024/01/17 01:40:17;;;;;;;0.30;0.30;;;;;;;;;;5038387;28;20049;-77
2024/01/17 01:42:43;;;;;;;0.20;0.20;;;;;;;;;;5041126;28;20143;-78
2024/01/17 01:45:10;;;;;;;0.10;0.10;;;;;;;;;;5026794;28;20431;-79
2024/01/17 01:47:37;;;;;;;0.00;0.00;;;;;;;;;;5040142;28;20053;-77
2024/01/17 01:50:05;;;;;;;0.08;0.08;;;;;;;;;;5045823;28;20057;-77
2024/01/17 01:52:33;;;;;;;0.00;0.00;;;;;;;;;;5037656;28;20512;-77
2024/01/17 01:55:00;;;;;;;0.00;0.00;;;;;;;;;;5033443;28;20057;-77
2024/01/17 01:57:28;;;;;;;0.10;0.10;;;;;;;;;;5034202;28;20058;-77
2024/01/17 01:59:55;;;;;;;0.00;0.00;;;;;;;;;;5024836;28;20104;-77
2024/01/17 02:02:22;;;;;;;0.10;0.10;;;;;;;;;;5027447;28;20054;-77
2024/01/17 02:04:50;;;;;;;0.25;0.25;;;;;;;;;;5043667;28;20061;-77
2024/01/17 02:07:18;;;;;;;0.10;0.10;;;;;;;;;;5028904;28;20085;-77
2024/01/17 02:09:45;;;;;;;0.03;0.03;;;;;;;;;;5018376;28;20515;-77
2024/01/17 02:12:11;;;;;;;0.10;0.10;;;;;;;;;;5044009;28;20144;-77
2024/01/17 02:14:39;;;;;;;0.10;0.10;;;;;;;;;;5042736;28;20100;-76
2024/01/17 02:17:07;;;;;;;0.10;0.10;;;;;;;;;;5029463;28;20080;-77
2024/01/17 02:19:33;;;;;;;0.95;0.95;;;;;;;;;;5030882;28;20053;-77
2024/01/17 02:22:00;;;;;;;0.00;0.00;;;;;;;;;;5035964;28;20060;-77
2024/01/17 02:24:28;;;;;;;0.00;0.00;;;;;;;;;;5042347;28;20131;-77
2024/01/17 02:26:59;;;;;;;0.00;0.00;;;;;;;;;;5044296;28;20132;-77
2024/01/17 02:29:26;;;;;;;0.10;0.10;;;;;;;;;;5028619;28;20057;-77
2024/01/17 02:31:54;;;;;;;0.00;0.00;;;;;;;;;;5039948;28;20554;-79
2024/01/17 02:34:20;;;;;;;0.00;0.00;;;;;;;;;;5023924;28;20049;-78
2024/01/17 02:36:47;;;;;;;0.10;0.10;;;;;;;;;;5036700;28;20053;-77
2024/01/17 02:39:16;;;;;;;0.10;0.10;;;;;;;;;;5036627;28;20056;-78
2024/01/17 02:41:46;;;;;;;0.20;0.20;;;;;;;;;;5038618;28;20057;-78
2024/01/17 02:44:13;;;;;;;0.10;0.10;;;;;;;;;;5047093;28;20065;-77
2024/01/17 02:46:39;;;;;;;0.10;0.10;;;;;;;;;;5037601;28;20057;-77
2024/01/17 02:49:05;;;;;;;0.00;0.00;;;;;;;;;;5036310;28;20074;-78
2024/01/17 02:51:32;;;;;;;0.10;0.10;;;;;;;;;;5039188;28;20053;-77
2024/01/17 02:53:58;;;;;;;0.10;0.10;;;;;;;;;;5042549;28;20103;-77
2024/01/17 02:56:25;;;;;;;0.10;0.10;;;;;;;;;;5045054;28;20060;-78
2024/01/17 02:58:51;;;;;;;0.10;0.10;;;;;;;;;;5034268;28;20058;-78
2024/01/17 03:01:18;;;;;;;0.10;0.10;;;;;;;;;;5041369;28;20059;-77
2024/01/17 03:03:44;;;;;;;0.10;0.10;;;;;;;;;;5037245;28;20183;-77
2024/01/17 03:06:11;;;;;;;0.10;0.10;;;;;;;;;;5036774;28;21457;-77
2024/01/17 03:08:37;;;;;;;0.10;0.10;;;;;;;;;;5024425;28;20054;-77
2024/01/17 03:11:04;;;;;;;0.10;0.10;;;;;;;;;;5039852;28;20057;-77
2024/01/17 03:13:30;;;;;;;0.10;0.10;;;;;;;;;;5043807;28;20054;-77
2024/01/17 03:15:57;;;;;;;0.73;0.73;;;;;;;;;;5039970;28;20139;-77
2024/01/17 03:18:23;;;;;;;1.95;1.85;;;;;;;;;;5037916;28;20089;-77
2024/01/17 03:20:50;;;;;;;0.00;0.00;;;;;;;;;;5040488;28;20053;-77
2024/01/17 03:23:16;;;;;;;0.20;0.20;;;;;;;;;;5042904;28;20986;-77
2024/01/17 03:25:43;;;;;;;0.00;0.00;;;;;;;;;;5036325;28;20074;-77
2024/01/17 03:28:09;;;;;;;0.00;0.00;;;;;;;;;;5031577;28;20061;-78
2024/01/17 03:30:36;;;;;;;0.10;0.10;;;;;;;;;;5023145;28;20064;-77
2024/01/17 03:33:03;;;;;;;0.10;0.10;;;;;;;;;;5040396;28;20585;-78
2024/01/17 03:35:30;;;;;;;0.08;0.08;;;;;;;;;;5043901;28;20563;-78
2024/01/17 03:37:57;;;;;;;0.05;0.05;;;;;;;;;;5040412;28;20058;-77
2024/01/17 03:40:24;;;;;;;0.10;0.10;;;;;;;;;;5031297;28;20046;-77
2024/01/17 03:42:50;;;;;;;0.10;0.10;;;;;;;;;;5033900;28;20108;-76
2024/01/17 03:45:17;;;;;;;0.00;0.00;;;;;;;;;;5039175;28;20136;-77
2024/01/17 03:47:43;;;;;;;0.03;0.03;;;;;;;;;;5039635;28;20049;-77
2024/01/17 03:50:10;;;;;;;0.10;0.10;;;;;;;;;;5042425;28;20049;-78
2024/01/17 03:52:36;;;;;;;0.03;0.03;;;;;;;;;;5036904;28;20053;-77
2024/01/17 03:55:03;;;;;;;0.10;0.10;;;;;;;;;;5033120;28;20060;-77
2024/01/17 03:57:29;;;;;;;0.52;0.52;;;;;;;;;;5035667;28;20054;-79
2024/01/17 03:59:55;;;;;;;0.10;0.10;;;;;;;;;;5025442;28;20558;-77
2024/01/17 04:02:22;;;;;;;0.10;0.10;;;;;;;;;;5042270;28;20059;-77
2024/01/17 04:04:48;;;;;;;0.10;0.10;;;;;;;;;;5043406;28;20050;-77
2024/01/17 04:07:20;;;;;;;0.00;0.00;;;;;;;;;;5033873;28;20054;-77
2024/01/17 04:09:47;;;;;;;0.10;0.10;;;;;;;;;;5035511;28;20057;-78
2024/01/17 04:12:13;;;;;;;0.10;0.10;;;;;;;;;;5042492;28;20104;-77
2024/01/17 04:14:40;;;;;;;0.10;0.10;;;;;;;;;;5042769;28;20092;-77
2024/01/17 04:17:08;;;;;;;0.13;0.13;;;;;;;;;;5045164;28;20058;-77
2024/01/17 04:19:35;;;;;;;0.10;0.10;;;;;;;;;;5043161;28;20136;-77
2024/01/17 04:22:01;;;;;;;0.05;0.05;;;;;;;;;;5042469;28;20062;-77
2024/01/17 04:24:27;;;;;;;0.10;0.10;;;;;;;;;;5041666;28;20057;-77
2024/01/17 04:26:55;;;;;;;0.10;0.10;;;;;;;;;;5034268;28;20057;-78
2024/01/17 04:29:22;;;;;;;0.00;0.00;;;;;;;;;;5036431;28;21022;-77
2024/01/17 04:31:48;;;;;;;0.08;0.08;;;;;;;;;;5039601;28;20042;-77
2024/01/17 04:34:15;;;;;;;0.10;0.10;;;;;;;;;;5025709;28;20526;-76
2024/01/17 04:36:42;;;;;;;0.10;0.10;;;;;;;;;;5042810;28;20141;-76
2024/01/17 04:39:09;;;;;;;0.05;0.05;;;;;;;;;;5039024;28;20054;-77
2024/01/17 04:41:36;;;;;;;0.05;0.05;;;;;;;;;;5035219;28;21114;-76
2024/01/17 04:44:03;;;;;;;0.10;0.10;;;;;;;;;;5027303;28;20054;-77
2024/01/17 04:46:29;;;;;;;0.10;0.10;;;;;;;;;;5039504;28;20061;-77
2024/01/17 04:48:56;;;;;;;0.08;0.08;;;;;;;;;;5040928;28;20483;-77
2024/01/17 04:51:25;;;;;;;0.00;0.00;;;;;;;;;;5021178;28;20420;-76
2024/01/17 04:53:52;;;;;;;0.10;0.10;;;;;;;;;;5039214;28;20570;-77
2024/01/17 04:56:19;;;;;;;0.10;0.10;;;;;;;;;;5042860;28;20053;-76
2024/01/17 04:58:45;;;;;;;0.10;0.10;;;;;;;;;;5040297;28;20451;-76
2024/01/17 05:01:12;;;;;;;0.22;0.22;;;;;;;;;;5030199;28;20498;-76
2024/01/17 05:03:41;;;;;;;0.00;0.00;;;;;;;;;;5041325;28;20058;-76
2024/01/17 05:06:08;;;;;;;0.00;0.00;;;;;;;;;;5038589;28;20551;-76
2024/01/17 05:08:34;;;;;;;0.10;0.10;;;;;;;;;;5041058;28;20571;-76
2024/01/17 05:11:01;;;;;;;0.10;0.10;;;;;;;;;;5040476;28;20056;-76
2024/01/17 05:13:28;;;;;;;0.10;0.10;;;;;;;;;;5031917;28;20065;-76
2024/01/17 05:15:54;;;;;;;0.20;0.20;;;;;;;;;;5033964;28;20049;-76
2024/01/17 05:18:21;;;;;;;0.10;0.10;;;;;;;;;;5034522;28;20128;-77
2024/01/17 05:20:47;;;;;;;0.28;0.28;;;;;;;;;;5042704;28;20050;-76
2024/01/17 05:23:14;;;;;;;0.00;0.00;;;;;;;;;;5046247;28;20053;-76
2024/01/17 05:25:40;;;;;;;0.10;0.10;;;;;;;;;;5039741;28;20514;-76
2024/01/17 05:28:07;;;;;;;0.10;0.10;;;;;;;;;;5016407;28;20069;-76
2024/01/17 05:30:34;;;;;;;0.10;0.10;;;;;;;;;;5044179;28;20137;-76
2024/01/17 05:33:01;;;;;;;0.10;0.10;;;;;;;;;;5042806;28;20049;-76
2024/01/17 05:35:28;;;;;;;0.10;0.10;;;;;;;;;;5044228;28;20503;-76
2024/01/17 05:37:55;;;;;;;0.10;0.10;;;;;;;;;;5044713;28;20050;-76
2024/01/17 05:40:22;;;;;;;0.10;0.10;;;;;;;;;;5031851;28;20089;-77
2024/01/17 05:42:49;;;;;;;0.10;0.10;;;;;;;;;;5039590;28;20064;-76
2024/01/17 05:45:16;;;;;;;0.10;0.10;;;;;;;;;;5038785;28;20508;-76
2024/01/17 05:47:43;;;;;;;0.10;0.10;;;;;;;;;;5041338;28;20145;-77
2024/01/17 05:50:09;;;;;;;0.10;0.10;;;;;;;;;;5047162;28;20054;-77
2024/01/17 05:52:39;;;;;;;0.10;0.10;;;;;;;;;;5046347;28;20057;-76
2024/01/17 05:55:06;;;;;;;0.10;0.10;;;;;;;;;;5037068;28;20058;-77
2024/01/17 05:57:33;;;;;;;0.10;0.10;;;;;;;;;;5034086;28;20077;-76
2024/01/17 06:00:00;;;;;;;0.10;0.10;;;;;;;;;;5036666;28;20144;-76
2024/01/17 06:02:26;;;;;;;0.10;0.10;;;;;;;;;;5039606;28;20432;-76
2024/01/17 06:04:52;;;;;;;0.10;0.10;;;;;;;;;;5046809;28;20050;-76
2024/01/17 06:07:19;;;;;;;0.10;0.10;;;;;;;;;;5040446;28;20124;-77
2024/01/17 06:09:45;;;;;;;0.10;0.10;;;;;;;;;;5031817;28;20512;-77
2024/01/17 06:12:12;;;;;;;0.10;0.10;;;;;;;;;;5041220;28;20050;-79
2024/01/17 06:14:40;;;;;;;0.10;0.10;;;;;;;;;;5038593;28;20153;-77
2024/01/17 06:17:08;;;;;;;0.10;0.10;;;;;;;;;;5043097;28;20148;-77
2024/01/17 06:19:34;;;;;;;0.10;0.10;;;;;;;;;;5045737;28;20061;-79
2024/01/17 06:22:01;;;;;;;0.10;0.10;;;;;;;;;;5037224;28;20087;-76
2024/01/17 06:24:27;;;;;;;0.10;0.10;;;;;;;;;;5032842;28;20058;-77
2024/01/17 06:26:53;;;;;;;0.10;0.10;;;;;;;;;;5038268;28;20065;-77
2024/01/17 06:29:25;;;;;;;;;;;;;;;;;;5044338;28;20085;-77
2024/01/17 06:31:53;;;;;;;0.10;0.10;;;;;;;;;;5044619;28;47244;-77
2024/01/17 06:34:19;;;;;;;0.10;0.10;;;;;;;;;;5040225;28;20108;-77
2024/01/17 06:36:46;;;;;;;0.10;0.10;;;;;;;;;;5038821;28;20480;-77
2024/01/17 06:39:16;;;;;;;0.10;0.10;;;;;;;;;;5021411;28;20057;-77
2024/01/17 06:41:43;;;;;;;0.10;0.10;;;;;;;;;;5039075;28;20054;-77
2024/01/17 06:44:13;;;;;;;0.10;0.10;;;;;;;;;;5041777;28;20140;-77
2024/01/17 06:46:39;;;;;;;0.10;0.10;;;;;;;;;;5043234;28;20093;-76
2024/01/17 06:49:05;;;;;;;0.10;0.10;;;;;;;;;;5039450;28;20112;-76
2024/01/17 06:51:32;;;;;;;0.10;0.10;;;;;;;;;;5117631;22;20144;-81
2024/01/17 06:53:58;;;;;;;0.13;0.13;;;;;;;;;;5048668;28;20809;-82
2024/01/17 06:56:25;;;;;;;0.10;0.10;;;;;;;;;;5058846;28;20053;-81
2024/01/17 06:58:51;;;;;;;0.10;0.10;;;;;;;;;;5054393;28;20582;-81
2024/01/17 07:01:20;;;;;;;0.10;0.10;;;;;;;;;;5053597;28;20053;-82
2024/01/17 07:03:47;;;;;;;0.00;0.00;;;;;;;;;;5051175;28;20081;-82
2024/01/17 07:06:13;;;;;;;0.00;0.00;;;;;;;;;;5047941;28;20843;-81
2024/01/17 07:08:40;;;;;;;0.10;0.10;;;;;;;;;;5049474;28;20148;-81
2024/01/17 07:11:09;;;;;;;0.10;0.10;;;;;;;;;;5054905;28;20049;-82
2024/01/17 07:13:36;;;;;;;0.10;0.10;;;;;;;;;;5054573;28;20045;-80
2024/01/17 07:16:03;;;;;;;0.10;0.10;;;;;;;;;;5054714;28;20041;-81
2024/01/17 07:18:29;;;;;;;0.10;0.10;;;;;;;;;;5051830;28;21105;-82
2024/01/17 07:20:56;;;;;;;0.10;0.10;;;;;;;;;;5036265;28;20064;-81
2024/01/17 07:23:22;;;;;;;0.10;0.10;;;;;;;;;;5035915;28;20054;-81
2024/01/17 07:25:49;;;;;;;0.10;0.10;;;;;;;;;;5051478;28;20053;-81
2024/01/17 07:28:15;;;;;;;0.10;0.10;;;;;;;;;;5050964;28;20057;-81
2024/01/17 07:30:42;;;;;;;0.00;0.00;;;;;;;;;;5039162;28;20061;-81
2024/01/17 07:33:08;;;;;;;0.10;0.10;;;;;;;;;;5051408;28;20053;-83
2024/01/17 07:35:35;;;;;;;0.10;0.10;;;;;;;;;;5052638;28;20053;-80
2024/01/17 07:38:02;;;;;;;0.10;0.10;;;;;;;;;;5050806;28;20200;-81
2024/01/17 07:40:29;;;;;;;0.10;0.10;;;;;;;;;;5055752;28;20570;-81
2024/01/17 07:42:55;;;;;;;0.10;0.10;;;;;;;;;;5054355;28;20088;-82
2024/01/17 07:45:22;;;;;;;0.40;0.40;;;;;;;;;;5051629;28;20054;-80
2024/01/17 07:47:48;;;;;;;0.10;0.10;;;;;;;;;;5029890;28;20194;-81
2024/01/17 07:50:15;;;;;;;0.10;0.10;;;;;;;;;;5050590;28;20053;-81
2024/01/17 07:52:42;;;;;;;0.10;0.10;;;;;;;;;;5052457;28;20060;-82
2024/01/17 07:55:08;;;;;;;0.10;0.10;;;;;;;;;;5047227;28;20053;-82
2024/01/17 07:57:34;;;;;;;0.10;0.10;;;;;;;;;;5028998;28;20054;-80
2024/01/17 08:00:01;;;;;;;0.10;0.10;;;;;;;;;;5025965;28;20080;-81
2024/01/17 08:02:27;;;;;;;0.10;0.10;;;;;;;;;;5034018;28;20050;-81
2024/01/17 08:04:54;;;;;;;0.10;0.10;;;;;;;;;;5047875;28;20049;-81
2024/01/17 08:07:24;;;;;;;0.10;0.10;;;;;;;;;;5048208;28;20053;-82
2024/01/17 08:09:52;;;;;;;0.10;0.10;;;;;;;;;;5028138;28;20479;-80
2024/01/17 08:12:19;;;;;;;0.00;0.00;;;;;;;;;;5032942;28;20054;-81
2024/01/17 08:14:48;;;;;;;0.10;0.10;;;;;;;;;;5046971;28;20065;-81
2024/01/17 08:17:14;;;;;;;0.10;0.10;;;;;;;;;;5047453;28;20581;-80
2024/01/17 08:19:41;;;;;;;0.10;0.10;;;;;;;;;;5049847;28;20050;-81
2024/01/17 08:22:09;;;;;;;0.10;0.10;;;;;;;;;;5038812;28;20140;-81
2024/01/17 08:24:36;;;;;;;0.10;0.10;;;;;;;;;;5046977;28;20065;-80
2024/01/17 08:27:03;;;;;;;0.05;0.05;;;;;;;;;;5029537;28;20049;-80
2024/01/17 08:29:29;;;;;;;0.00;0.00;;;;;;;;;;5041869;28;20050;-80
2024/01/17 08:31:56;;;;;;;12.57;11.88;;;;;;;;;;5031194;28;20132;-81
2024/01/17 08:34:22;;;;;;;0.10;0.10;;;;;;;;;;5049225;28;20077;-81
2024/01/17 08:36:49;;;;;;;0.10;0.10;;;;;;;;;;5048537;28;20049;-80
2024/01/17 08:39:16;;;;;;;0.00;0.00;;;;;;;;;;5025595;28;20561;-80
2024/01/17 08:41:45;;;;;;;0.08;0.08;;;;;;;;;;5041903;28;20112;-81
2024/01/17 08:44:15;;;;;;;0.00;0.00;;;;;;;;;;5044554;28;20615;-79
2024/01/17 08:46:43;;;;;;;0.10;0.10;;;;;;;;;;5039107;28;20053;-78
2024/01/17 08:49:12;;;;;;;0.10;0.10;;;;;;;;;;5053319;28;20050;-79
2024/01/17 08:51:38;;;;;;;0.10;0.10;;;;;;;;;;5058561;28;20495;-79
2024/01/17 08:54:05;;;;;;;0.10;0.10;;;;;;;;;;5057095;28;20100;-80
2024/01/17 08:56:32;;;;;;;0.10;0.10;;;;;;;;;;5049074;28;20054;-79
2024/01/17 08:58:58;;;;;;;0.10;0.10;;;;;;;;;;5063132;28;20895;-79
2024/01/17 09:01:25;;;;;;;0.10;0.10;;;;;;;;;;5066337;28;20057;-80
2024/01/17 09:03:51;;;;;;;0.10;0.10;;;;;;;;;;5063959;28;20056;-80
2024/01/17 09:06:17;;;;;;;0.10;0.10;;;;;;;;;;5062996;28;20057;-79
2024/01/17 09:08:44;;;;;;;0.10;0.10;;;;;;;;;;5058125;28;20053;-79
2024/01/17 09:11:11;;;;;;;0.10;0.10;;;;;;;;;;5058390;28;20089;-79
2024/01/17 09:13:38;;;;;;;0.10;0.10;;;;;;;;;;5060424;28;20054;-79
2024/01/17 09:16:05;;;;;;;0.10;0.10;;;;;;;;;;5045128;28;20116;-78
2024/01/17 09:18:31;;;;;;;0.10;0.10;;;;;;;;;;5042691;28;20042;-81
2024/01/17 09:20:58;;;;;;;0.10;0.10;;;;;;;;;;5065607;28;20045;-79
2024/01/17 09:23:24;;;;;;;0.10;0.10;;;;;;;;;;5069695;28;20045;-79
2024/01/17 09:25:51;;;;;;;0.10;0.10;;;;;;;;;;5071119;28;20084;-80
2024/01/17 09:28:17;;;;;;;0.30;0.30;;;;;;;;;;5064801;28;20042;-80
2024/01/17 09:30:43;;;;;;;0.10;0.10;;;;;;;;;;5066123;28;20046;-80
2024/01/17 09:33:10;;;;;;;0.10;0.10;;;;;;;;;;5058900;28;20045;-80
2024/01/17 09:35:38;;;;;;;0.00;0.00;;;;;;;;;;5047306;28;20038;-80
2024/01/17 09:38:20;;;;;;;0.10;0.10;;;;;;;;;;5059302;28;20052;-80
2024/01/17 09:40:49;;;;;;;0.10;0.10;;;;;;;;;;5073852;28;21071;-80
2024/01/17 09:43:16;;;;;;;0.10;0.10;;;;;;;;;;5048423;28;20040;-80
2024/01/17 09:45:45;;;;;;;0.10;0.10;;;;;;;;;;5067822;28;20053;-80
2024/01/17 09:48:15;;;;;;;0.25;0.25;;;;;;;;;;5048391;28;20057;-79
2024/01/17 09:50:41;;;;;;;0.10;0.10;;;;;;;;;;5051473;28;20064;-80
2024/01/17 09:53:11;;;;;;;0.10;0.10;;;;;;;;;;5048844;28;20042;-79
2024/01/17 09:55:38;;;;;;;0.10;0.10;;;;;;;;;;5067715;28;20163;-80
2024/01/17 09:58:05;;;;;;;0.10;0.10;;;;;;;;;;5066619;28;20045;-80
2024/01/17 10:00:32;;;;;;;0.10;0.10;;;;;;;;;;5048514;28;20481;-80
2024/01/17 10:02:59;;;;;;;0.10;0.10;;;;;;;;;;5061681;28;20045;-80
2024/01/17 10:05:30;;;;;;;0.10;0.10;;;;;;;;;;5066776;28;20251;-80
2024/01/17 10:08:01;;;;;;;0.10;0.10;;;;;;;;;;5066516;28;20073;-80
2024/01/17 10:10:27;;;;;;;0.10;0.10;;;;;;;;;;5065259;28;20069;-80
2024/01/17 10:12:54;;;;;;;0.10;0.10;;;;;;;;;;5046510;28;20100;-80
2024/01/17 10:15:22;;;;;;;0.15;0.15;;;;;;;;;;5066031;28;20045;-80
2024/01/17 10:17:49;;;;;;;0.10;0.10;;;;;;;;;;5065745;28;20046;-79
2024/01/17 10:20:20;;;;;;;0.10;0.10;;;;;;;;;;5058523;28;20063;-80
2024/01/17 10:22:48;;;;;;;0.45;0.45;;;;;;;;;;5063344;28;20107;-80
2024/01/17 10:25:16;;;;;;;0.10;0.10;;;;;;;;;;5062217;28;20061;-79
2024/01/17 10:27:42;;;;;;;11.65;9.20;;;;;;;;;;5039541;28;20064;-79
2024/01/17 10:30:09;;;;;;;0.10;0.10;;;;;;;;;;5058281;28;20046;-81
2024/01/17 10:32:37;;;;;;;0.10;0.10;;;;;;;;;;5056426;28;20054;-79
2024/01/17 10:35:04;;;;;;;0.00;0.00;;;;;;;;;;5056942;28;20057;-79
2024/01/17 10:37:30;;;;;;;0.00;0.00;;;;;;;;;;5051173;28;20054;-80
2024/01/17 10:40:10;;;;;;;0.10;0.10;;;;;;;;;;5052332;28;20058;-80
2024/01/17 10:42:37;;;;;;;0.10;0.10;;;;;;;;;;5056807;28;20038;-80
2024/01/17 10:45:05;;;;;;;0.10;0.10;;;;;;;;;;5059474;28;20225;-80
2024/01/17 10:47:31;;;;;;;0.10;0.10;;;;;;;;;;5067826;28;20052;-80
2024/01/17 10:49:58;;;;;;;0.10;0.10;;;;;;;;;;5064831;28;20065;-79
2024/01/17 10:52:25;;;;;;;0.10;0.10;;;;;;;;;;5059592;28;20100;-79
2024/01/17 10:54:58;;;;;;;0.82;0.80;;;;;;;;;;5051566;28;20057;-79
2024/01/17 10:57:25;;;;;;;0.10;0.10;;;;;;;;;;5064579;28;20105;-79
2024/01/17 10:59:51;;;;;;;0.10;0.10;;;;;;;;;;5063684;28;20115;-79
2024/01/17 11:02:19;;;;;;;0.10;0.10;;;;;;;;;;5060565;28;20057;-79
2024/01/17 11:04:46;;;;;;;0.05;0.05;;;;;;;;;;5065862;28;20472;-79
2024/01/17 11:07:16;;;;;;;0.10;0.10;;;;;;;;;;5062420;28;20378;-79
2024/01/17 11:09:45;;;;;;;0.10;0.10;;;;;;;;;;5060799;28;20042;-79
2024/01/17 11:12:12;;;;;;;0.10;0.10;;;;;;;;;;5044254;28;20183;-79
2024/01/17 11:14:39;;;;;;;0.10;0.10;;;;;;;;;;5056297;28;20061;-78
2024/01/17 11:17:06;;;;;;;0.10;0.10;;;;;;;;;;5042610;28;20042;-79
2024/01/17 11:19:33;;;;;;;0.10;0.10;;;;;;;;;;5061314;28;20105;-78
2024/01/17 11:22:00;;;;;;;0.10;0.10;;;;;;;;;;5062019;28;20620;-78
2024/01/17 11:24:34;;;;;;;0.10;0.10;;;;;;;;;;5060364;28;20069;-78
2024/01/17 11:27:07;;;;;;;0.10;0.10;;;;;;;;;;5049052;28;20050;-78
2024/01/17 11:29:42;;;;;;;0.10;0.10;;;;;;;;;;5057840;28;20049;-78
2024/01/17 11:32:21;;;;;;;0.10;0.10;;;;;;;;;;5058183;28;20097;-78
2024/01/17 11:34:48;;;;;;;0.10;0.10;;;;;;;;;;5056676;28;20084;-78
2024/01/17 11:37:28;;;;;;;0.10;0.10;;;;;;;;;;5062840;28;21254;-78
2024/01/17 11:39:59;;;;;;;0.10;0.10;;;;;;;;;;5052204;28;20855;-78
2024/01/17 11:42:25;;;;;;;0.10;0.10;;;;;;;;;;5047949;28;20054;-79
2024/01/17 11:44:52;;;;;;;0.10;0.10;;;;;;;;;;5065089;28;21117;-77
2024/01/17 11:47:38;;;;;;;0.10;0.10;;;;;;;;;;5048554;28;20105;-77
2024/01/17 11:50:05;;;;;;;0.25;0.25;;;;;;;;;;5050212;28;20045;-77
2024/01/17 11:52:33;;;;;;;0.03;0.03;;;;;;;;;;5054012;28;20054;-77
2024/01/17 11:55:00;;;;;;;0.10;0.10;;;;;;;;;;5052458;28;20049;-77
2024/01/17 11:57:28;;;;;;;0.10;0.10;;;;;;;;;;5060162;28;20033;-77
2024/01/17 12:00:07;;;;;;;0.10;0.10;;;;;;;;;;5052890;28;20058;-76
2024/01/17 12:02:38;;;;;;;0.10;0.10;;;;;;;;;;5039731;28;20053;-77
2024/01/17 12:05:05;;;;;;;;;;;;;;;;;;5036035;28;20156;-77
2024/01/17 12:07:36;;;;;;;0.10;0.10;;;;;;;;;;5044471;28;45078;-79
2024/01/17 12:10:09;;;;;;;1.30;1.30;;;;;;;;;;5045708;28;20049;-79
2024/01/17 12:12:43;;;;;;;0.10;0.10;;;;;;;;;;5046150;28;20144;-79
2024/01/17 12:15:11;;;;;;;1.65;1.55;;;;;;;;;;5037245;28;20085;-78
2024/01/17 12:17:38;;;;;;;0.45;0.45;;;;;;;;;;5058284;28;20041;-78
2024/01/17 12:20:07;;;;;;;0.10;0.10;;;;;;;;;;5059408;28;20248;-79
2024/01/17 12:22:34;;;;;;;0.10;0.10;;;;;;;;;;5053470;28;20522;-77
2024/01/17 12:25:01;;;;;;;0.70;0.68;;;;;;;;;;5045737;28;20057;-78
2024/01/17 12:27:30;;;;;;;0.10;0.10;;;;;;;;;;5046226;28;20049;-77
2024/01/17 12:30:03;;;;;;;0.10;0.10;;;;;;;;;;5045509;28;20057;-77
2024/01/17 12:32:29;;;;;;;0.10;0.10;;;;;;;;;;5045340;28;20049;-77
2024/01/17 12:34:56;;;;;;;0.10;0.10;;;;;;;;;;5043623;28;20605;-76
2024/01/17 12:37:23;;;;;;;0.10;0.10;;;;;;;;;;5053550;28;20555;-76
2024/01/17 12:39:49;;;;;;;0.10;0.10;;;;;;;;;;5037934;28;20105;-76
2024/01/17 12:42:18;;;;;;;0.82;0.82;;;;;;;;;;5045113;28;20160;-77
2024/01/17 12:44:46;;;;;;;0.10;0.10;;;;;;;;;;5043430;28;20049;-76
2024/01/17 12:47:13;;;;;;;0.10;0.10;;;;;;;;;;5045107;28;20103;-76
2024/01/17 12:49:39;;;;;;;0.10;0.10;;;;;;;;;;5047743;28;20104;-76
2024/01/17 12:52:06;;;;;;;1.00;1.00;;;;;;;;;;5135141;22;20521;-79
2024/01/17 12:54:32;;;;;;;0.10;0.10;;;;;;;;;;5081416;28;20049;-79
2024/01/17 12:56:59;;;;;;;0.10;0.10;;;;;;;;;;5093243;28;20093;-79
2024/01/17 12:59:25;;;;;;;0.10;0.10;;;;;;;;;;5077225;28;20064;-79
2024/01/17 13:01:55;;;;;;;0.10;0.10;;;;;;;;;;5072333;28;20045;-79
2024/01/17 13:04:22;;;;;;;0.10;0.10;;;;;;;;;;5059898;28;20160;-79
2024/01/17 13:06:50;;;;;;;0.10;0.10;;;;;;;;;;5056925;28;20065;-79
2024/01/17 13:09:18;;;;;;;0.10;0.10;;;;;;;;;;5060150;28;20133;-79
2024/01/17 13:11:49;;;;;;;0.00;0.00;;;;;;;;;;5062582;28;20053;-79
2024/01/17 13:14:17;;;;;;;0.10;0.10;;;;;;;;;;5071332;28;21930;-79
2024/01/17 13:16:45;;;;;;;0.10;0.10;;;;;;;;;;5066948;28;20034;-79
2024/01/17 13:19:13;;;;;;;0.10;0.10;;;;;;;;;;5046441;28;20042;-79
2024/01/17 13:21:41;;;;;;;0.00;0.00;;;;;;;;;;5045732;28;20133;-79
2024/01/17 13:24:08;;;;;;;0.10;0.10;;;;;;;;;;5053757;28;22470;-79
2024/01/17 13:26:38;;;;;;;0.28;0.28;;;;;;;;;;5052062;28;20049;-81
2024/01/17 13:29:05;;;;;;;0.10;0.10;;;;;;;;;;5053200;28;20094;-81
2024/01/17 13:31:34;;;;;;;0.15;0.15;;;;;;;;;;5056833;28;20049;-81
2024/01/17 13:34:01;;;;;;;0.10;0.10;;;;;;;;;;5070663;28;20096;-80
2024/01/17 13:36:30;;;;;;;0.00;0.00;;;;;;;;;;5043853;28;20076;-80
2024/01/17 13:38:56;;;;;;;0.10;0.10;;;;;;;;;;5043150;28;20103;-80
2024/01/17 13:41:23;;;;;;;0.10;0.10;;;;;;;;;;5060902;28;20084;-80
2024/01/17 13:43:49;;;;;;;0.10;0.10;;;;;;;;;;5036694;28;20095;-80
2024/01/17 13:46:15;;;;;;;0.20;0.20;;;;;;;;;;5038950;28;20058;-80
2024/01/17 13:48:42;;;;;;;0.10;0.10;;;;;;;;;;5048339;28;20138;-80
2024/01/17 13:51:12;;;;;;;0.10;0.10;;;;;;;;;;5044167;28;21320;-80
2024/01/17 13:53:41;;;;;;;0.17;0.17;;;;;;;;;;5036369;28;20060;-80
2024/01/17 13:56:10;;;;;;;0.10;0.10;;;;;;;;;;5030564;28;20052;-80
2024/01/17 13:58:37;;;;;;;0.10;0.10;;;;;;;;;;5041790;28;20064;-80
2024/01/17 14:01:08;;;;;;;0.10;0.10;;;;;;;;;;5039689;28;20054;-80
2024/01/17 14:03:39;;;;;;;;;;;;;;;;;;5046716;28;20598;-80
2024/01/17 14:06:05;;;;;;;;;;;;;;;;;;5047570;28;45918;-80
2024/01/17 14:08:32;;;;;;;0.10;0.10;;;;;;;;;;5036268;28;46697;-80
2024/01/17 14:10:58;;;;;;;0.10;0.10;;;;;;;;;;5055806;28;20049;-77
2024/01/17 14:13:25;;;;;;;0.10;0.10;;;;;;;;;;5049991;28;20450;-81
2024/01/17 14:15:51;;;;;;;0.10;0.10;;;;;;;;;;5054153;28;20084;-80
2024/01/17 14:18:18;;;;;;;0.10;0.10;;;;;;;;;;5055806;28;20170;-80
2024/01/17 14:20:45;;;;;;;0.10;0.10;;;;;;;;;;5045581;28;20053;-80
2024/01/17 14:23:12;;;;;;;0.10;0.10;;;;;;;;;;5051424;28;20029;-80
2024/01/17 14:25:38;;;;;;;0.00;0.00;;;;;;;;;;5049869;28;20089;-79
2024/01/17 14:28:07;;;;;;;0.10;0.10;;;;;;;;;;5046315;28;20532;-80
2024/01/17 14:30:33;;;;;;;0.10;0.10;;;;;;;;;;5045452;28;20053;-80
2024/01/17 14:33:02;;;;;;;0.10;0.10;;;;;;;;;;5048645;28;20477;-80
2024/01/17 14:35:31;;;;;;;0.08;0.08;;;;;;;;;;5048714;28;20131;-80
2024/01/17 14:38:02;;;;;;;;;;;;;;;;;;5049989;28;20054;-80
2024/01/17 14:40:28;;;;;;;0.10;0.10;;;;;;;;;;5049587;28;48086;-80
2024/01/17 14:42:54;;;;;;;0.10;0.10;;;;;;;;;;5032840;28;20053;-82
2024/01/17 14:45:21;;;;;;;0.10;0.10;;;;;;;;;;5042400;28;21037;-81